sensor_id;sensor_type;location;lat;lon;timestamp;P1;durP1;ratioP1;P2;durP2;ratioP2
1993;SDS011;998;49.906;10.908;2023-12-07T00:02:21;69.03;;;43.67;;
1993;SDS011;998;49.906;10.908;2023-12-07T00:04:48;71.40;;;43.10;;
1993;SDS011;998;49.906;10.908;2023-12-07T00:07:17;67.00;;;44.07;;
1993;SDS011;998;49.906;10.908;2023-12-07T00:09:44;70.10;;;47.60;;
1993;SDS011;998;49.906;10.908;2023-12-07T00:12:11;69.10;;;45.53;;
1993;SDS011;998;49.906;10.908;2023-12-07T00:14:39;68.43;;;42.00;;
1993;SDS011;998;49.906;10.908;2023-12-07T00:17:07;78.70;;;49.03;;
1993;SDS011;998;49.906;10.908;2023-12-07T00:19:35;71.67;;;41.10;;
1993;SDS011;998;49.906;10.908;2023-12-07T00:22:03;70.97;;;44.57;;
1993;SDS011;998;49.906;10.908;2023-12-07T00:24:31;63.33;;;41.03;;
1993;SDS011;998;49.906;10.908;2023-12-07T00:26:59;69.30;;;41.80;;
1993;SDS011;998;49.906;10.908;2023-12-07T00:29:26;63.53;;;41.27;;
1993;SDS011;998;49.906;10.908;2023-12-07T00:31:54;68.47;;;44.33;;
1993;SDS011;998;49.906;10.908;2023-12-07T00:34:21;69.37;;;42.67;;
1993;SDS011;998;49.906;10.908;2023-12-07T00:36:48;68.83;;;43.80;;
1993;SDS011;998;49.906;10.908;2023-12-07T00:39:16;70.20;;;46.00;;
1993;SDS011;998;49.906;10.908;2023-12-07T00:41:44;62.70;;;38.27;;
1993;SDS011;998;49.906;10.908;2023-12-07T00:44:12;69.57;;;46.43;;
1993;SDS011;998;49.906;10.908;2023-12-07T00:46:40;66.27;;;41.60;;
1993;SDS011;998;49.906;10.908;2023-12-07T00:49:07;68.67;;;42.13;;
1993;SDS011;998;49.906;10.908;2023-12-07T00:51:35;79.90;;;50.57;;
1993;SDS011;998;49.906;10.908;2023-12-07T00:54:02;71.77;;;50.33;;
1993;SDS011;998;49.906;10.908;2023-12-07T00:56:29;75.87;;;48.03;;
1993;SDS011;998;49.906;10.908;2023-12-07T00:58:58;68.67;;;45.03;;
1993;SDS011;998;49.906;10.908;2023-12-07T01:01:27;70.00;;;42.37;;
1993;SDS011;998;49.906;10.908;2023-12-07T01:03:55;80.07;;;50.53;;
1993;SDS011;998;49.906;10.908;2023-12-07T01:06:22;73.97;;;44.80;;
1993;SDS011;998;49.906;10.908;2023-12-07T01:08:49;77.07;;;48.73;;
1993;SDS011;998;49.906;10.908;2023-12-07T01:11:17;80.57;;;46.17;;
1993;SDS011;998;49.906;10.908;2023-12-07T01:13:44;73.27;;;45.67;;
1993;SDS011;998;49.906;10.908;2023-12-07T01:16:13;73.87;;;44.87;;
1993;SDS011;998;49.906;10.908;2023-12-07T01:18:40;63.67;;;41.00;;
1993;SDS011;998;49.906;10.908;2023-12-07T01:21:09;73.63;;;44.80;;
1993;SDS011;998;49.906;10.908;2023-12-07T01:23:37;66.50;;;40.90;;
1993;SDS011;998;49.906;10.908;2023-12-07T01:26:05;79.87;;;48.00;;
1993;SDS011;998;49.906;10.908;2023-12-07T01:28:32;73.27;;;41.60;;
1993;SDS011;998;49.906;10.908;2023-12-07T01:31:00;67.23;;;43.87;;
1993;SDS011;998;49.906;10.908;2023-12-07T01:33:29;79.00;;;47.73;;
1993;SDS011;998;49.906;10.908;2023-12-07T01:35:56;68.90;;;42.83;;
1993;SDS011;998;49.906;10.908;2023-12-07T01:38:23;78.83;;;46.43;;
1993;SDS011;998;49.906;10.908;2023-12-07T01:40:51;75.20;;;45.90;;
1993;SDS011;998;49.906;10.908;2023-12-07T01:43:19;71.83;;;41.23;;
1993;SDS011;998;49.906;10.908;2023-12-07T01:45:48;72.00;;;42.00;;
1993;SDS011;998;49.906;10.908;2023-12-07T01:48:19;75.67;;;40.93;;
1993;SDS011;998;49.906;10.908;2023-12-07T01:50:48;68.53;;;40.80;;
1993;SDS011;998;49.906;10.908;2023-12-07T01:53:16;67.70;;;40.67;;
1993;SDS011;998;49.906;10.908;2023-12-07T01:55:44;68.43;;;42.97;;
1993;SDS011;998;49.906;10.908;2023-12-07T01:58:12;71.27;;;45.97;;
1993;SDS011;998;49.906;10.908;2023-12-07T02:00:43;71.10;;;44.13;;
1993;SDS011;998;49.906;10.908;2023-12-07T02:03:12;70.27;;;43.90;;
1993;SDS011;998;49.906;10.908;2023-12-07T02:05:41;64.93;;;41.27;;
1993;SDS011;998;49.906;10.908;2023-12-07T02:08:13;81.53;;;44.77;;
1993;SDS011;998;49.906;10.908;2023-12-07T02:10:41;63.17;;;39.47;;
1993;SDS011;998;49.906;10.908;2023-12-07T02:13:08;66.37;;;41.93;;
1993;SDS011;998;49.906;10.908;2023-12-07T02:15:36;66.47;;;44.37;;
1993;SDS011;998;49.906;10.908;2023-12-07T02:18:10;72.33;;;45.43;;
1993;SDS011;998;49.906;10.908;2023-12-07T02:20:42;64.63;;;39.57;;
1993;SDS011;998;49.906;10.908;2023-12-07T02:23:15;66.47;;;43.00;;
1993;SDS011;998;49.906;10.908;2023-12-07T02:29:17;67.77;;;42.70;;
1993;SDS011;998;49.906;10.908;2023-12-07T02:31:45;67.10;;;40.47;;
1993;SDS011;998;49.906;10.908;2023-12-07T02:34:13;78.30;;;44.20;;
1993;SDS011;998;49.906;10.908;2023-12-07T02:36:40;68.53;;;39.00;;
1993;SDS011;998;49.906;10.908;2023-12-07T02:39:10;87.63;;;48.97;;
1993;SDS011;998;49.906;10.908;2023-12-07T02:41:39;67.70;;;42.40;;
1993;SDS011;998;49.906;10.908;2023-12-07T02:44:07;69.50;;;43.73;;
1993;SDS011;998;49.906;10.908;2023-12-07T02:46:37;72.50;;;46.70;;
1993;SDS011;998;49.906;10.908;2023-12-07T02:49:04;65.47;;;39.70;;
1993;SDS011;998;49.906;10.908;2023-12-07T02:51:32;76.60;;;44.10;;
1993;SDS011;998;49.906;10.908;2023-12-07T02:53:59;72.60;;;48.23;;
1993;SDS011;998;49.906;10.908;2023-12-07T02:56:27;68.73;;;42.03;;
1993;SDS011;998;49.906;10.908;2023-12-07T02:58:54;74.70;;;47.43;;
1993;SDS011;998;49.906;10.908;2023-12-07T03:01:21;68.07;;;42.93;;
1993;SDS011;998;49.906;10.908;2023-12-07T03:03:50;72.70;;;48.37;;
1993;SDS011;998;49.906;10.908;2023-12-07T03:06:17;69.20;;;43.80;;
1993;SDS011;998;49.906;10.908;2023-12-07T03:08:45;73.47;;;43.80;;
1993;SDS011;998;49.906;10.908;2023-12-07T03:11:12;65.03;;;41.77;;
1993;SDS011;998;49.906;10.908;2023-12-07T03:13:40;67.73;;;40.83;;
1993;SDS011;998;49.906;10.908;2023-12-07T03:16:08;73.67;;;45.43;;
1993;SDS011;998;49.906;10.908;2023-12-07T03:18:36;76.93;;;43.53;;
1993;SDS011;998;49.906;10.908;2023-12-07T03:21:05;74.07;;;43.27;;
1993;SDS011;998;49.906;10.908;2023-12-07T03:23:32;80.70;;;44.90;;
1993;SDS011;998;49.906;10.908;2023-12-07T03:26:00;74.70;;;45.60;;
1993;SDS011;998;49.906;10.908;2023-12-07T03:28:27;79.40;;;45.20;;
1993;SDS011;998;49.906;10.908;2023-12-07T03:30:55;71.07;;;43.87;;
1993;SDS011;998;49.906;10.908;2023-12-07T03:33:22;72.63;;;42.30;;
1993;SDS011;998;49.906;10.908;2023-12-07T03:35:49;70.40;;;41.90;;
1993;SDS011;998;49.906;10.908;2023-12-07T03:38:18;72.50;;;46.60;;
1993;SDS011;998;49.906;10.908;2023-12-07T03:40:46;76.90;;;45.53;;
1993;SDS011;998;49.906;10.908;2023-12-07T03:43:13;74.30;;;45.47;;
1993;SDS011;998;49.906;10.908;2023-12-07T03:45:40;69.37;;;42.27;;
1993;SDS011;998;49.906;10.908;2023-12-07T03:48:08;69.50;;;42.60;;
1993;SDS011;998;49.906;10.908;2023-12-07T03:50:35;70.80;;;42.20;;
1993;SDS011;998;49.906;10.908;2023-12-07T03:53:02;69.23;;;43.00;;
1993;SDS011;998;49.906;10.908;2023-12-07T03:55:31;67.33;;;41.70;;
1993;SDS011;998;49.906;10.908;2023-12-07T03:57:59;72.40;;;45.20;;
1993;SDS011;998;49.906;10.908;2023-12-07T04:00:26;77.20;;;46.17;;
1993;SDS011;998;49.906;10.908;2023-12-07T04:02:53;73.57;;;43.80;;
1993;SDS011;998;49.906;10.908;2023-12-07T04:05:21;75.90;;;45.70;;
1993;SDS011;998;49.906;10.908;2023-12-07T04:07:48;72.17;;;42.60;;
1993;SDS011;998;49.906;10.908;2023-12-07T04:10:16;68.70;;;43.23;;
1993;SDS011;998;49.906;10.908;2023-12-07T04:12:44;68.43;;;40.57;;
1993;SDS011;998;49.906;10.908;2023-12-07T04:15:12;76.90;;;47.80;;
1993;SDS011;998;49.906;10.908;2023-12-07T04:17:39;75.07;;;43.00;;
1993;SDS011;998;49.906;10.908;2023-12-07T04:20:07;81.00;;;51.80;;
1993;SDS011;998;49.906;10.908;2023-12-07T04:22:36;69.63;;;42.20;;
1993;SDS011;998;49.906;10.908;2023-12-07T04:25:03;70.53;;;42.40;;
1993;SDS011;998;49.906;10.908;2023-12-07T04:27:32;78.93;;;44.23;;
1993;SDS011;998;49.906;10.908;2023-12-07T04:30:01;72.23;;;41.47;;
1993;SDS011;998;49.906;10.908;2023-12-07T04:32:28;69.60;;;39.43;;
1993;SDS011;998;49.906;10.908;2023-12-07T04:34:56;68.73;;;40.53;;
1993;SDS011;998;49.906;10.908;2023-12-07T04:37:23;66.80;;;41.17;;
1993;SDS011;998;49.906;10.908;2023-12-07T04:39:50;79.83;;;46.60;;
1993;SDS011;998;49.906;10.908;2023-12-07T04:42:18;77.23;;;47.60;;
1993;SDS011;998;49.906;10.908;2023-12-07T04:44:45;72.53;;;42.60;;
1993;SDS011;998;49.906;10.908;2023-12-07T04:47:14;79.20;;;43.87;;
1993;SDS011;998;49.906;10.908;2023-12-07T04:49:41;71.60;;;42.83;;
1993;SDS011;998;49.906;10.908;2023-12-07T04:52:09;79.07;;;47.07;;
1993;SDS011;998;49.906;10.908;2023-12-07T04:54:36;76.90;;;43.73;;
1993;SDS011;998;49.906;10.908;2023-12-07T04:57:04;79.20;;;47.53;;
1993;SDS011;998;49.906;10.908;2023-12-07T04:59:31;73.87;;;42.70;;
1993;SDS011;998;49.906;10.908;2023-12-07T05:01:59;81.13;;;46.20;;
1993;SDS011;998;49.906;10.908;2023-12-07T05:04:28;70.33;;;42.17;;
1993;SDS011;998;49.906;10.908;2023-12-07T05:06:56;72.37;;;41.97;;
1993;SDS011;998;49.906;10.908;2023-12-07T05:09:23;77.47;;;46.63;;
1993;SDS011;998;49.906;10.908;2023-12-07T05:11:51;80.53;;;43.37;;
1993;SDS011;998;49.906;10.908;2023-12-07T05:14:18;83.67;;;47.73;;
1993;SDS011;998;49.906;10.908;2023-12-07T05:16:46;86.83;;;50.30;;
1993;SDS011;998;49.906;10.908;2023-12-07T05:19:13;74.47;;;43.70;;
1993;SDS011;998;49.906;10.908;2023-12-07T05:21:42;72.93;;;43.27;;
1993;SDS011;998;49.906;10.908;2023-12-07T05:24:09;74.77;;;44.70;;
1993;SDS011;998;49.906;10.908;2023-12-07T05:26:37;68.93;;;43.00;;
1993;SDS011;998;49.906;10.908;2023-12-07T05:29:05;73.63;;;46.20;;
1993;SDS011;998;49.906;10.908;2023-12-07T05:31:33;72.33;;;43.00;;
1993;SDS011;998;49.906;10.908;2023-12-07T05:34:00;75.00;;;49.33;;
1993;SDS011;998;49.906;10.908;2023-12-07T05:36:28;75.83;;;43.10;;
1993;SDS011;998;49.906;10.908;2023-12-07T05:38:57;77.67;;;47.50;;
1993;SDS011;998;49.906;10.908;2023-12-07T05:41:25;74.07;;;44.20;;
1993;SDS011;998;49.906;10.908;2023-12-07T05:43:52;82.50;;;49.17;;
1993;SDS011;998;49.906;10.908;2023-12-07T05:46:20;83.63;;;44.77;;
1993;SDS011;998;49.906;10.908;2023-12-07T05:48:47;73.13;;;41.90;;
1993;SDS011;998;49.906;10.908;2023-12-07T05:51:15;79.23;;;44.57;;
1993;SDS011;998;49.906;10.908;2023-12-07T05:53:43;73.27;;;45.43;;
1993;SDS011;998;49.906;10.908;2023-12-07T05:56:16;69.47;;;41.93;;
1993;SDS011;998;49.906;10.908;2023-12-07T05:58:45;70.67;;;43.17;;
1993;SDS011;998;49.906;10.908;2023-12-07T06:01:16;76.97;;;45.67;;
1993;SDS011;998;49.906;10.908;2023-12-07T06:03:44;79.83;;;43.60;;
1993;SDS011;998;49.906;10.908;2023-12-07T06:06:12;75.33;;;45.83;;
1993;SDS011;998;49.906;10.908;2023-12-07T06:08:39;87.80;;;43.10;;
1993;SDS011;998;49.906;10.908;2023-12-07T06:11:07;73.07;;;43.17;;
1993;SDS011;998;49.906;10.908;2023-12-07T06:13:36;71.37;;;41.23;;
1993;SDS011;998;49.906;10.908;2023-12-07T06:16:04;71.27;;;41.57;;
1993;SDS011;998;49.906;10.908;2023-12-07T06:18:32;82.70;;;50.13;;
1993;SDS011;998;49.906;10.908;2023-12-07T06:21:00;75.90;;;42.43;;
1993;SDS011;998;49.906;10.908;2023-12-07T06:23:28;65.27;;;40.67;;
1993;SDS011;998;49.906;10.908;2023-12-07T06:25:55;72.23;;;42.27;;
1993;SDS011;998;49.906;10.908;2023-12-07T06:28:23;66.67;;;41.13;;
1993;SDS011;998;49.906;10.908;2023-12-07T06:30:52;73.73;;;43.37;;
1993;SDS011;998;49.906;10.908;2023-12-07T06:33:19;79.80;;;44.60;;
1993;SDS011;998;49.906;10.908;2023-12-07T06:35:46;72.87;;;43.00;;
1993;SDS011;998;49.906;10.908;2023-12-07T06:38:14;75.23;;;47.50;;
1993;SDS011;998;49.906;10.908;2023-12-07T06:40:41;69.07;;;42.97;;
1993;SDS011;998;49.906;10.908;2023-12-07T06:43:09;78.87;;;45.90;;
1993;SDS011;998;49.906;10.908;2023-12-07T06:45:37;67.10;;;42.13;;
1993;SDS011;998;49.906;10.908;2023-12-07T06:48:06;70.23;;;41.83;;
1993;SDS011;998;49.906;10.908;2023-12-07T06:50:33;66.13;;;41.00;;
1993;SDS011;998;49.906;10.908;2023-12-07T06:53:00;66.83;;;39.77;;
1993;SDS011;998;49.906;10.908;2023-12-07T06:55:28;73.83;;;43.13;;
1993;SDS011;998;49.906;10.908;2023-12-07T06:57:55;62.67;;;39.90;;
1993;SDS011;998;49.906;10.908;2023-12-07T07:00:23;74.67;;;45.67;;
1993;SDS011;998;49.906;10.908;2023-12-07T07:02:50;70.30;;;42.53;;
1993;SDS011;998;49.906;10.908;2023-12-07T07:05:19;70.27;;;43.77;;
1993;SDS011;998;49.906;10.908;2023-12-07T07:07:47;71.63;;;42.37;;
1993;SDS011;998;49.906;10.908;2023-12-07T07:10:16;78.53;;;45.43;;
1993;SDS011;998;49.906;10.908;2023-12-07T07:12:44;90.90;;;45.53;;
1993;SDS011;998;49.906;10.908;2023-12-07T07:15:11;76.70;;;47.70;;
1993;SDS011;998;49.906;10.908;2023-12-07T07:17:38;67.20;;;40.10;;
1993;SDS011;998;49.906;10.908;2023-12-07T07:20:06;72.10;;;41.60;;
1993;SDS011;998;49.906;10.908;2023-12-07T07:22:35;68.87;;;43.10;;
1993;SDS011;998;49.906;10.908;2023-12-07T07:25:03;76.43;;;43.67;;
1993;SDS011;998;49.906;10.908;2023-12-07T07:27:31;73.00;;;44.83;;
1993;SDS011;998;49.906;10.908;2023-12-07T07:29:59;71.57;;;43.30;;
1993;SDS011;998;49.906;10.908;2023-12-07T07:32:29;64.30;;;41.77;;
1993;SDS011;998;49.906;10.908;2023-12-07T07:34:57;71.17;;;43.10;;
1993;SDS011;998;49.906;10.908;2023-12-07T07:37:24;71.63;;;41.83;;
1993;SDS011;998;49.906;10.908;2023-12-07T07:39:53;74.27;;;43.20;;
1993;SDS011;998;49.906;10.908;2023-12-07T07:42:21;66.20;;;42.07;;
1993;SDS011;998;49.906;10.908;2023-12-07T07:44:48;76.53;;;43.77;;
1993;SDS011;998;49.906;10.908;2023-12-07T07:47:16;72.97;;;44.97;;
1993;SDS011;998;49.906;10.908;2023-12-07T07:49:44;74.50;;;45.57;;
1993;SDS011;998;49.906;10.908;2023-12-07T07:52:11;73.30;;;44.57;;
1993;SDS011;998;49.906;10.908;2023-12-07T07:54:39;62.47;;;37.70;;
1993;SDS011;998;49.906;10.908;2023-12-07T07:57:07;71.93;;;42.27;;
1993;SDS011;998;49.906;10.908;2023-12-07T07:59:35;74.57;;;39.63;;
1993;SDS011;998;49.906;10.908;2023-12-07T08:02:02;71.90;;;45.07;;
1993;SDS011;998;49.906;10.908;2023-12-07T08:04:30;71.70;;;43.80;;
1993;SDS011;998;49.906;10.908;2023-12-07T08:06:58;78.17;;;45.17;;
1993;SDS011;998;49.906;10.908;2023-12-07T08:09:25;68.33;;;45.20;;
1993;SDS011;998;49.906;10.908;2023-12-07T08:11:52;65.40;;;41.37;;
1993;SDS011;998;49.906;10.908;2023-12-07T08:14:21;76.83;;;48.60;;
1993;SDS011;998;49.906;10.908;2023-12-07T08:16:48;75.57;;;48.60;;
1993;SDS011;998;49.906;10.908;2023-12-07T08:19:16;76.70;;;44.80;;
1993;SDS011;998;49.906;10.908;2023-12-07T08:21:44;74.33;;;46.37;;
1993;SDS011;998;49.906;10.908;2023-12-07T08:24:11;70.20;;;48.27;;
1993;SDS011;998;49.906;10.908;2023-12-07T08:26:39;74.67;;;46.87;;
1993;SDS011;998;49.906;10.908;2023-12-07T08:29:06;66.90;;;40.50;;
1993;SDS011;998;49.906;10.908;2023-12-07T08:31:35;68.70;;;42.07;;
1993;SDS011;998;49.906;10.908;2023-12-07T08:34:12;73.80;;;47.33;;
1993;SDS011;998;49.906;10.908;2023-12-07T08:36:39;85.33;;;50.90;;
1993;SDS011;998;49.906;10.908;2023-12-07T08:39:06;67.20;;;42.57;;
1993;SDS011;998;49.906;10.908;2023-12-07T08:41:35;76.80;;;43.60;;
1993;SDS011;998;49.906;10.908;2023-12-07T08:44:02;77.03;;;48.60;;
1993;SDS011;998;49.906;10.908;2023-12-07T08:46:30;73.90;;;46.63;;
1993;SDS011;998;49.906;10.908;2023-12-07T08:49:00;71.57;;;47.33;;
1993;SDS011;998;49.906;10.908;2023-12-07T08:51:28;68.70;;;43.63;;
1993;SDS011;998;49.906;10.908;2023-12-07T08:53:55;89.87;;;60.67;;
1993;SDS011;998;49.906;10.908;2023-12-07T08:56:22;76.30;;;49.83;;
1993;SDS011;998;49.906;10.908;2023-12-07T08:58:50;72.47;;;48.53;;
1993;SDS011;998;49.906;10.908;2023-12-07T09:01:18;74.60;;;49.03;;
1993;SDS011;998;49.906;10.908;2023-12-07T09:03:45;77.97;;;45.77;;
1993;SDS011;998;49.906;10.908;2023-12-07T09:06:14;75.43;;;44.63;;
1993;SDS011;998;49.906;10.908;2023-12-07T09:08:41;64.83;;;43.23;;
1993;SDS011;998;49.906;10.908;2023-12-07T09:11:09;79.83;;;53.33;;
1993;SDS011;998;49.906;10.908;2023-12-07T09:13:36;75.47;;;45.20;;
1993;SDS011;998;49.906;10.908;2023-12-07T09:16:04;76.33;;;43.90;;
1993;SDS011;998;49.906;10.908;2023-12-07T09:18:33;71.33;;;45.17;;
1993;SDS011;998;49.906;10.908;2023-12-07T09:21:01;68.60;;;42.40;;
1993;SDS011;998;49.906;10.908;2023-12-07T09:23:30;69.73;;;45.80;;
1993;SDS011;998;49.906;10.908;2023-12-07T09:25:58;65.13;;;43.10;;
1993;SDS011;998;49.906;10.908;2023-12-07T09:28:25;75.53;;;47.07;;
1993;SDS011;998;49.906;10.908;2023-12-07T09:30:53;67.10;;;43.77;;
1993;SDS011;998;49.906;10.908;2023-12-07T09:33:20;67.20;;;45.90;;
1993;SDS011;998;49.906;10.908;2023-12-07T09:35:47;74.30;;;48.10;;
1993;SDS011;998;49.906;10.908;2023-12-07T09:38:15;68.30;;;43.73;;
1993;SDS011;998;49.906;10.908;2023-12-07T09:40:44;65.00;;;42.97;;
1993;SDS011;998;49.906;10.908;2023-12-07T09:43:13;73.93;;;47.53;;
1993;SDS011;998;49.906;10.908;2023-12-07T09:45:42;76.93;;;47.83;;
1993;SDS011;998;49.906;10.908;2023-12-07T09:48:11;72.87;;;48.97;;
1993;SDS011;998;49.906;10.908;2023-12-07T09:50:39;65.67;;;43.77;;
1993;SDS011;998;49.906;10.908;2023-12-07T09:53:07;69.33;;;43.53;;
1993;SDS011;998;49.906;10.908;2023-12-07T09:55:35;64.23;;;46.00;;
1993;SDS011;998;49.906;10.908;2023-12-07T09:58:04;67.33;;;45.70;;
1993;SDS011;998;49.906;10.908;2023-12-07T10:00:32;70.50;;;46.50;;
1993;SDS011;998;49.906;10.908;2023-12-07T10:02:59;75.33;;;46.07;;
1993;SDS011;998;49.906;10.908;2023-12-07T10:05:27;82.37;;;50.47;;
1993;SDS011;998;49.906;10.908;2023-12-07T10:07:54;73.07;;;45.83;;
1993;SDS011;998;49.906;10.908;2023-12-07T10:10:22;74.47;;;48.50;;
1993;SDS011;998;49.906;10.908;2023-12-07T10:12:51;80.57;;;50.20;;
1993;SDS011;998;49.906;10.908;2023-12-07T10:15:21;72.33;;;45.97;;
1993;SDS011;998;49.906;10.908;2023-12-07T10:17:50;70.77;;;48.40;;
1993;SDS011;998;49.906;10.908;2023-12-07T10:20:19;73.77;;;46.20;;
1993;SDS011;998;49.906;10.908;2023-12-07T10:22:48;80.07;;;47.87;;
1993;SDS011;998;49.906;10.908;2023-12-07T10:25:27;81.30;;;50.87;;
1993;SDS011;998;49.906;10.908;2023-12-07T10:27:55;79.53;;;46.93;;
1993;SDS011;998;49.906;10.908;2023-12-07T10:30:24;68.40;;;44.93;;
1993;SDS011;998;49.906;10.908;2023-12-07T10:32:53;78.43;;;50.73;;
1993;SDS011;998;49.906;10.908;2023-12-07T10:35:21;70.83;;;43.90;;
1993;SDS011;998;49.906;10.908;2023-12-07T10:37:48;74.60;;;47.80;;
1993;SDS011;998;49.906;10.908;2023-12-07T10:40:16;70.40;;;46.47;;
1993;SDS011;998;49.906;10.908;2023-12-07T10:42:47;75.70;;;46.67;;
1993;SDS011;998;49.906;10.908;2023-12-07T10:45:15;71.70;;;48.87;;
1993;SDS011;998;49.906;10.908;2023-12-07T10:47:44;73.87;;;44.70;;
1993;SDS011;998;49.906;10.908;2023-12-07T10:50:13;78.07;;;50.57;;
1993;SDS011;998;49.906;10.908;2023-12-07T10:52:44;73.60;;;45.80;;
1993;SDS011;998;49.906;10.908;2023-12-07T10:55:16;69.87;;;45.33;;
1993;SDS011;998;49.906;10.908;2023-12-07T10:57:48;62.27;;;42.63;;
1993;SDS011;998;49.906;10.908;2023-12-07T11:00:18;72.30;;;48.07;;
1993;SDS011;998;49.906;10.908;2023-12-07T11:02:48;75.97;;;49.50;;
1993;SDS011;998;49.906;10.908;2023-12-07T11:05:17;84.33;;;49.97;;
1993;SDS011;998;49.906;10.908;2023-12-07T11:07:50;81.47;;;49.07;;
1993;SDS011;998;49.906;10.908;2023-12-07T11:10:23;77.43;;;49.73;;
1993;SDS011;998;49.906;10.908;2023-12-07T11:13:00;72.00;;;45.90;;
1993;SDS011;998;49.906;10.908;2023-12-07T11:15:38;65.40;;;43.13;;
1993;SDS011;998;49.906;10.908;2023-12-07T11:18:07;68.33;;;45.97;;
1993;SDS011;998;49.906;10.908;2023-12-07T11:20:41;66.63;;;39.53;;
1993;SDS011;998;49.906;10.908;2023-12-07T11:23:09;71.90;;;47.77;;
1993;SDS011;998;49.906;10.908;2023-12-07T11:25:36;66.70;;;42.90;;
1993;SDS011;998;49.906;10.908;2023-12-07T11:28:05;67.87;;;43.77;;
1993;SDS011;998;49.906;10.908;2023-12-07T11:30:35;67.07;;;42.83;;
1993;SDS011;998;49.906;10.908;2023-12-07T11:33:03;75.80;;;48.03;;
1993;SDS011;998;49.906;10.908;2023-12-07T11:35:32;68.73;;;49.60;;
1993;SDS011;998;49.906;10.908;2023-12-07T11:38:01;77.13;;;49.67;;
1993;SDS011;998;49.906;10.908;2023-12-07T11:40:31;71.00;;;46.27;;
1993;SDS011;998;49.906;10.908;2023-12-07T11:43:02;74.57;;;51.20;;
1993;SDS011;998;49.906;10.908;2023-12-07T11:45:40;71.07;;;45.80;;
1993;SDS011;998;49.906;10.908;2023-12-07T11:48:09;70.33;;;43.93;;
1993;SDS011;998;49.906;10.908;2023-12-07T11:53:25;67.23;;;44.23;;
1993;SDS011;998;49.906;10.908;2023-12-07T11:55:55;80.57;;;50.33;;
1993;SDS011;998;49.906;10.908;2023-12-07T11:58:22;69.80;;;44.80;;
1993;SDS011;998;49.906;10.908;2023-12-07T12:00:51;66.97;;;44.30;;
1993;SDS011;998;49.906;10.908;2023-12-07T12:03:21;77.80;;;52.57;;
1993;SDS011;998;49.906;10.908;2023-12-07T12:05:49;71.50;;;48.37;;
1993;SDS011;998;49.906;10.908;2023-12-07T12:08:18;73.77;;;48.00;;
1993;SDS011;998;49.906;10.908;2023-12-07T12:10:45;68.60;;;42.90;;
1993;SDS011;998;49.906;10.908;2023-12-07T12:13:15;73.07;;;48.73;;
1993;SDS011;998;49.906;10.908;2023-12-07T12:15:42;80.10;;;51.30;;
1993;SDS011;998;49.906;10.908;2023-12-07T12:18:10;75.27;;;47.40;;
1993;SDS011;998;49.906;10.908;2023-12-07T12:20:39;84.00;;;51.17;;
1993;SDS011;998;49.906;10.908;2023-12-07T12:23:06;96.60;;;52.17;;
1993;SDS011;998;49.906;10.908;2023-12-07T12:25:35;122.67;;;62.80;;
1993;SDS011;998;49.906;10.908;2023-12-07T12:28:03;136.67;;;62.60;;
1993;SDS011;998;49.906;10.908;2023-12-07T12:30:32;144.27;;;59.17;;
1993;SDS011;998;49.906;10.908;2023-12-07T12:33:00;149.03;;;61.17;;
1993;SDS011;998;49.906;10.908;2023-12-07T12:35:27;163.93;;;63.07;;
1993;SDS011;998;49.906;10.908;2023-12-07T12:37:55;189.83;;;68.47;;
1993;SDS011;998;49.906;10.908;2023-12-07T12:40:23;175.97;;;66.40;;
1993;SDS011;998;49.906;10.908;2023-12-07T12:42:55;176.87;;;63.97;;
1993;SDS011;998;49.906;10.908;2023-12-07T12:45:23;181.03;;;73.43;;
1993;SDS011;998;49.906;10.908;2023-12-07T12:47:51;181.10;;;75.07;;
1993;SDS011;998;49.906;10.908;2023-12-07T12:50:34;165.27;;;64.30;;
1993;SDS011;998;49.906;10.908;2023-12-07T12:53:04;161.70;;;64.00;;
1993;SDS011;998;49.906;10.908;2023-12-07T12:55:32;168.30;;;64.93;;
1993;SDS011;998;49.906;10.908;2023-12-07T12:58:03;154.63;;;62.07;;
1993;SDS011;998;49.906;10.908;2023-12-07T13:00:30;166.93;;;67.10;;
1993;SDS011;998;49.906;10.908;2023-12-07T13:02:59;159.33;;;64.80;;
1993;SDS011;998;49.906;10.908;2023-12-07T13:05:26;164.87;;;70.93;;
1993;SDS011;998;49.906;10.908;2023-12-07T13:07:54;166.23;;;77.07;;
1993;SDS011;998;49.906;10.908;2023-12-07T13:10:22;146.60;;;68.10;;
1993;SDS011;998;49.906;10.908;2023-12-07T13:12:49;173.57;;;69.17;;
1993;SDS011;998;49.906;10.908;2023-12-07T13:15:18;202.10;;;80.27;;
1993;SDS011;998;49.906;10.908;2023-12-07T13:17:45;193.87;;;79.80;;
1993;SDS011;998;49.906;10.908;2023-12-07T13:20:13;196.57;;;74.33;;
1993;SDS011;998;49.906;10.908;2023-12-07T13:22:41;206.60;;;78.60;;
1993;SDS011;998;49.906;10.908;2023-12-07T13:25:09;205.23;;;78.97;;
1993;SDS011;998;49.906;10.908;2023-12-07T13:27:37;213.20;;;83.90;;
1993;SDS011;998;49.906;10.908;2023-12-07T13:30:04;201.80;;;76.40;;
1993;SDS011;998;49.906;10.908;2023-12-07T13:32:34;204.53;;;78.80;;
1993;SDS011;998;49.906;10.908;2023-12-07T13:35:02;193.70;;;75.90;;
1993;SDS011;998;49.906;10.908;2023-12-07T13:37:29;195.90;;;75.00;;
1993;SDS011;998;49.906;10.908;2023-12-07T13:39:57;191.90;;;74.43;;
1993;SDS011;998;49.906;10.908;2023-12-07T13:42:26;177.83;;;72.77;;
1993;SDS011;998;49.906;10.908;2023-12-07T13:44:54;177.90;;;83.40;;
1993;SDS011;998;49.906;10.908;2023-12-07T13:47:23;176.50;;;70.77;;
1993;SDS011;998;49.906;10.908;2023-12-07T13:49:57;170.60;;;71.67;;
1993;SDS011;998;49.906;10.908;2023-12-07T13:52:24;157.47;;;68.57;;
1993;SDS011;998;49.906;10.908;2023-12-07T13:54:53;161.57;;;70.67;;
1993;SDS011;998;49.906;10.908;2023-12-07T13:57:21;153.53;;;72.63;;
1993;SDS011;998;49.906;10.908;2023-12-07T13:59:50;158.07;;;72.50;;
1993;SDS011;998;49.906;10.908;2023-12-07T14:02:18;162.93;;;74.73;;
1993;SDS011;998;49.906;10.908;2023-12-07T14:04:46;148.80;;;65.23;;
1993;SDS011;998;49.906;10.908;2023-12-07T14:07:17;148.10;;;66.43;;
1993;SDS011;998;49.906;10.908;2023-12-07T14:09:46;149.10;;;66.10;;
1993;SDS011;998;49.906;10.908;2023-12-07T14:12:15;154.33;;;70.00;;
1993;SDS011;998;49.906;10.908;2023-12-07T14:14:43;149.40;;;67.07;;
1993;SDS011;998;49.906;10.908;2023-12-07T14:17:12;154.97;;;74.63;;
1993;SDS011;998;49.906;10.908;2023-12-07T14:19:39;145.67;;;67.13;;
1993;SDS011;998;49.906;10.908;2023-12-07T14:22:07;139.13;;;65.53;;
1993;SDS011;998;49.906;10.908;2023-12-07T14:24:36;143.90;;;62.07;;
1993;SDS011;998;49.906;10.908;2023-12-07T14:27:04;142.90;;;65.47;;
1993;SDS011;998;49.906;10.908;2023-12-07T14:29:32;151.40;;;66.43;;
1993;SDS011;998;49.906;10.908;2023-12-07T14:32:00;147.97;;;66.47;;
1993;SDS011;998;49.906;10.908;2023-12-07T14:34:28;156.33;;;70.90;;
1993;SDS011;998;49.906;10.908;2023-12-07T14:36:55;147.10;;;67.10;;
1993;SDS011;998;49.906;10.908;2023-12-07T14:39:23;156.27;;;74.13;;
1993;SDS011;998;49.906;10.908;2023-12-07T14:41:51;146.93;;;63.70;;
1993;SDS011;998;49.906;10.908;2023-12-07T14:44:21;143.00;;;62.73;;
1993;SDS011;998;49.906;10.908;2023-12-07T14:46:49;153.30;;;63.77;;
1993;SDS011;998;49.906;10.908;2023-12-07T14:49:17;170.07;;;69.80;;
1993;SDS011;998;49.906;10.908;2023-12-07T14:51:46;159.80;;;64.70;;
1993;SDS011;998;49.906;10.908;2023-12-07T14:54:13;153.83;;;64.50;;
1993;SDS011;998;49.906;10.908;2023-12-07T14:56:41;151.77;;;62.00;;
1993;SDS011;998;49.906;10.908;2023-12-07T14:59:11;153.43;;;69.83;;